sensor_id;sensor_type;location;lat;lon;timestamp;P1;durP1;ratioP1;P2;durP2;ratioP2
20185;SDS011;10252;48.792;8.582;2023-04-16T00:01:05;13.52;;;8.02;;
20185;SDS011;10252;48.792;8.582;2023-04-16T00:06:06;11.10;;;8.50;;
20185;SDS011;10252;48.792;8.582;2023-04-16T00:11:07;10.50;;;7.93;;
20185;SDS011;10252;48.792;8.582;2023-04-16T00:16:08;11.00;;;8.23;;
20185;SDS011;10252;48.792;8.582;2023-04-16T00:21:09;11.15;;;8.70;;
20185;SDS011;10252;48.792;8.582;2023-04-16T00:26:10;11.05;;;8.27;;
20185;SDS011;10252;48.792;8.582;2023-04-16T00:31:15;11.15;;;7.22;;
20185;SDS011;10252;48.792;8.582;2023-04-16T00:36:16;7.00;;;5.25;;
20185;SDS011;10252;48.792;8.582;2023-04-16T00:41:17;7.07;;;5.07;;
20185;SDS011;10252;48.792;8.582;2023-04-16T00:46:18;5.78;;;4.38;;
20185;SDS011;10252;48.792;8.582;2023-04-16T00:51:21;6.68;;;5.03;;
20185;SDS011;10252;48.792;8.582;2023-04-16T00:56:23;6.45;;;4.57;;
20185;SDS011;10252;48.792;8.582;2023-04-16T01:01:24;8.80;;;5.35;;
20185;SDS011;10252;48.792;8.582;2023-04-16T01:06:25;6.00;;;5.07;;
20185;SDS011;10252;48.792;8.582;2023-04-16T01:11:26;7.70;;;5.57;;
20185;SDS011;10252;48.792;8.582;2023-04-16T01:16:28;6.35;;;4.70;;
20185;SDS011;10252;48.792;8.582;2023-04-16T01:21:29;5.72;;;4.28;;
20185;SDS011;10252;48.792;8.582;2023-04-16T01:26:30;5.78;;;4.43;;
20185;SDS011;10252;48.792;8.582;2023-04-16T01:31:31;4.97;;;3.83;;
20185;SDS011;10252;48.792;8.582;2023-04-16T01:36:43;3.05;;;2.45;;
20185;SDS011;10252;48.792;8.582;2023-04-16T01:41:45;4.38;;;2.95;;
20185;SDS011;10252;48.792;8.582;2023-04-16T01:46:46;3.30;;;2.42;;
20185;SDS011;10252;48.792;8.582;2023-04-16T01:51:48;3.08;;;2.53;;
20185;SDS011;10252;48.792;8.582;2023-04-16T01:56:49;3.60;;;2.83;;
20185;SDS011;10252;48.792;8.582;2023-04-16T02:01:50;4.45;;;3.17;;
20185;SDS011;10252;48.792;8.582;2023-04-16T02:06:51;5.35;;;3.70;;
20185;SDS011;10252;48.792;8.582;2023-04-16T02:11:52;5.93;;;4.55;;
20185;SDS011;10252;48.792;8.582;2023-04-16T02:16:53;8.50;;;5.82;;
20185;SDS011;10252;48.792;8.582;2023-04-16T02:22:09;10.23;;;7.40;;
20185;SDS011;10252;48.792;8.582;2023-04-16T02:27:10;13.00;;;8.57;;
20185;SDS011;10252;48.792;8.582;2023-04-16T02:32:12;14.63;;;9.13;;
20185;SDS011;10252;48.792;8.582;2023-04-16T02:37:14;14.57;;;9.68;;
20185;SDS011;10252;48.792;8.582;2023-04-16T02:42:15;13.15;;;9.10;;
20185;SDS011;10252;48.792;8.582;2023-04-16T02:47:16;15.45;;;10.18;;
20185;SDS011;10252;48.792;8.582;2023-04-16T02:52:17;12.45;;;9.27;;
20185;SDS011;10252;48.792;8.582;2023-04-16T02:57:19;11.13;;;8.52;;
20185;SDS011;10252;48.792;8.582;2023-04-16T03:02:20;13.88;;;9.82;;
20185;SDS011;10252;48.792;8.582;2023-04-16T03:07:21;16.33;;;10.50;;
20185;SDS011;10252;48.792;8.582;2023-04-16T03:12:22;17.40;;;11.95;;
20185;SDS011;10252;48.792;8.582;2023-04-16T03:17:23;16.33;;;11.07;;
20185;SDS011;10252;48.792;8.582;2023-04-16T03:22:24;16.30;;;11.30;;
20185;SDS011;10252;48.792;8.582;2023-04-16T03:27:26;12.88;;;8.82;;
20185;SDS011;10252;48.792;8.582;2023-04-16T03:32:27;10.88;;;8.00;;
20185;SDS011;10252;48.792;8.582;2023-04-16T03:37:28;10.38;;;7.28;;
20185;SDS011;10252;48.792;8.582;2023-04-16T03:42:29;11.82;;;7.70;;
20185;SDS011;10252;48.792;8.582;2023-04-16T03:47:31;13.43;;;9.15;;
20185;SDS011;10252;48.792;8.582;2023-04-16T03:52:35;14.07;;;9.05;;
20185;SDS011;10252;48.792;8.582;2023-04-16T03:57:36;16.45;;;9.73;;
20185;SDS011;10252;48.792;8.582;2023-04-16T04:02:44;16.63;;;11.02;;
20185;SDS011;10252;48.792;8.582;2023-04-16T04:07:51;21.08;;;12.80;;
20185;SDS011;10252;48.792;8.582;2023-04-16T04:12:53;19.92;;;11.95;;
20185;SDS011;10252;48.792;8.582;2023-04-16T04:17:54;19.23;;;11.50;;
20185;SDS011;10252;48.792;8.582;2023-04-16T04:22:56;25.05;;;14.43;;
20185;SDS011;10252;48.792;8.582;2023-04-16T04:27:59;25.52;;;15.63;;
20185;SDS011;10252;48.792;8.582;2023-04-16T04:33:02;28.10;;;16.55;;
20185;SDS011;10252;48.792;8.582;2023-04-16T04:38:03;27.77;;;16.67;;
20185;SDS011;10252;48.792;8.582;2023-04-16T04:43:04;28.95;;;15.93;;
20185;SDS011;10252;48.792;8.582;2023-04-16T04:48:06;26.02;;;15.43;;
20185;SDS011;10252;48.792;8.582;2023-04-16T04:53:08;29.35;;;16.60;;
20185;SDS011;10252;48.792;8.582;2023-04-16T04:58:09;28.75;;;15.65;;
20185;SDS011;10252;48.792;8.582;2023-04-16T05:03:11;33.00;;;17.25;;
20185;SDS011;10252;48.792;8.582;2023-04-16T05:08:12;34.45;;;18.35;;
20185;SDS011;10252;48.792;8.582;2023-04-16T05:13:14;31.08;;;17.25;;
20185;SDS011;10252;48.792;8.582;2023-04-16T05:18:15;36.72;;;17.58;;
20185;SDS011;10252;48.792;8.582;2023-04-16T05:29:20;31.67;;;16.35;;
20185;SDS011;10252;48.792;8.582;2023-04-16T05:34:21;34.58;;;18.58;;
20185;SDS011;10252;48.792;8.582;2023-04-16T05:39:22;30.77;;;17.08;;
20185;SDS011;10252;48.792;8.582;2023-04-16T05:44:23;33.65;;;18.38;;
20185;SDS011;10252;48.792;8.582;2023-04-16T05:49:24;42.78;;;20.83;;
20185;SDS011;10252;48.792;8.582;2023-04-16T05:54:25;36.85;;;19.90;;
20185;SDS011;10252;48.792;8.582;2023-04-16T05:59:26;32.22;;;17.80;;
20185;SDS011;10252;48.792;8.582;2023-04-16T06:04:28;34.65;;;19.42;;
20185;SDS011;10252;48.792;8.582;2023-04-16T06:09:30;37.70;;;20.20;;
20185;SDS011;10252;48.792;8.582;2023-04-16T06:14:31;35.35;;;20.73;;
20185;SDS011;10252;48.792;8.582;2023-04-16T06:19:32;50.72;;;27.00;;
20185;SDS011;10252;48.792;8.582;2023-04-16T06:24:33;43.47;;;23.75;;
20185;SDS011;10252;48.792;8.582;2023-04-16T06:29:34;32.35;;;17.33;;
20185;SDS011;10252;48.792;8.582;2023-04-16T06:34:36;35.58;;;18.25;;
20185;SDS011;10252;48.792;8.582;2023-04-16T06:39:37;30.20;;;17.10;;
20185;SDS011;10252;48.792;8.582;2023-04-16T06:44:38;32.03;;;17.73;;
20185;SDS011;10252;48.792;8.582;2023-04-16T06:49:39;29.05;;;16.08;;
20185;SDS011;10252;48.792;8.582;2023-04-16T06:54:40;29.73;;;15.85;;
20185;SDS011;10252;48.792;8.582;2023-04-16T06:59:41;27.23;;;16.08;;
20185;SDS011;10252;48.792;8.582;2023-04-16T07:04:42;32.50;;;17.17;;
20185;SDS011;10252;48.792;8.582;2023-04-16T07:09:43;29.23;;;17.45;;
20185;SDS011;10252;48.792;8.582;2023-04-16T07:14:45;31.08;;;17.48;;
20185;SDS011;10252;48.792;8.582;2023-04-16T07:19:46;26.95;;;15.98;;
20185;SDS011;10252;48.792;8.582;2023-04-16T07:24:47;26.20;;;14.85;;
20185;SDS011;10252;48.792;8.582;2023-04-16T07:29:48;27.95;;;16.02;;
20185;SDS011;10252;48.792;8.582;2023-04-16T07:34:49;26.00;;;14.77;;
20185;SDS011;10252;48.792;8.582;2023-04-16T07:39:51;26.55;;;15.23;;
20185;SDS011;10252;48.792;8.582;2023-04-16T07:44:52;26.40;;;15.23;;
20185;SDS011;10252;48.792;8.582;2023-04-16T07:49:53;26.38;;;15.18;;
20185;SDS011;10252;48.792;8.582;2023-04-16T07:54:54;28.63;;;16.30;;
20185;SDS011;10252;48.792;8.582;2023-04-16T07:59:55;25.75;;;15.30;;
20185;SDS011;10252;48.792;8.582;2023-04-16T08:04:56;25.42;;;15.57;;
20185;SDS011;10252;48.792;8.582;2023-04-16T08:09:57;25.70;;;15.07;;
20185;SDS011;10252;48.792;8.582;2023-04-16T08:14:59;23.73;;;14.48;;
20185;SDS011;10252;48.792;8.582;2023-04-16T08:20:00;26.55;;;14.38;;
20185;SDS011;10252;48.792;8.582;2023-04-16T08:25:02;24.08;;;14.27;;
20185;SDS011;10252;48.792;8.582;2023-04-16T08:30:03;24.70;;;14.02;;
20185;SDS011;10252;48.792;8.582;2023-04-16T08:35:04;26.90;;;15.18;;
20185;SDS011;10252;48.792;8.582;2023-04-16T08:40:05;26.33;;;13.70;;
20185;SDS011;10252;48.792;8.582;2023-04-16T08:45:16;23.88;;;15.18;;
20185;SDS011;10252;48.792;8.582;2023-04-16T08:50:24;23.45;;;13.13;;
20185;SDS011;10252;48.792;8.582;2023-04-16T08:55:29;26.23;;;13.90;;
20185;SDS011;10252;48.792;8.582;2023-04-16T09:00:32;26.77;;;16.50;;
20185;SDS011;10252;48.792;8.582;2023-04-16T09:05:33;27.85;;;16.45;;
20185;SDS011;10252;48.792;8.582;2023-04-16T09:10:34;26.17;;;14.55;;
20185;SDS011;10252;48.792;8.582;2023-04-16T09:15:35;25.08;;;14.50;;
20185;SDS011;10252;48.792;8.582;2023-04-16T09:20:37;27.10;;;15.57;;
20185;SDS011;10252;48.792;8.582;2023-04-16T09:25:38;29.65;;;15.98;;
20185;SDS011;10252;48.792;8.582;2023-04-16T09:30:39;27.45;;;16.58;;
20185;SDS011;10252;48.792;8.582;2023-04-16T09:35:47;25.25;;;14.10;;
20185;SDS011;10252;48.792;8.582;2023-04-16T09:40:52;27.15;;;16.23;;
20185;SDS011;10252;48.792;8.582;2023-04-16T09:46:05;23.45;;;14.35;;
20185;SDS011;10252;48.792;8.582;2023-04-16T09:51:06;26.85;;;15.50;;
20185;SDS011;10252;48.792;8.582;2023-04-16T09:56:07;29.95;;;17.25;;
20185;SDS011;10252;48.792;8.582;2023-04-16T10:01:11;26.60;;;14.35;;
20185;SDS011;10252;48.792;8.582;2023-04-16T10:06:16;23.33;;;14.38;;
20185;SDS011;10252;48.792;8.582;2023-04-16T10:11:18;25.38;;;14.70;;
20185;SDS011;10252;48.792;8.582;2023-04-16T10:16:20;27.05;;;16.00;;
20185;SDS011;10252;48.792;8.582;2023-04-16T10:21:22;25.05;;;14.57;;
20185;SDS011;10252;48.792;8.582;2023-04-16T10:26:23;22.65;;;14.57;;
20185;SDS011;10252;48.792;8.582;2023-04-16T10:31:24;24.38;;;15.25;;
20185;SDS011;10252;48.792;8.582;2023-04-16T10:36:26;22.73;;;13.93;;
20185;SDS011;10252;48.792;8.582;2023-04-16T10:41:28;23.55;;;13.75;;
20185;SDS011;10252;48.792;8.582;2023-04-16T10:46:32;20.60;;;13.30;;
20185;SDS011;10252;48.792;8.582;2023-04-16T10:51:34;21.27;;;13.35;;
20185;SDS011;10252;48.792;8.582;2023-04-16T10:56:35;22.85;;;13.90;;
20185;SDS011;10252;48.792;8.582;2023-04-16T11:01:39;19.05;;;12.20;;
20185;SDS011;10252;48.792;8.582;2023-04-16T11:06:40;21.33;;;11.55;;
20185;SDS011;10252;48.792;8.582;2023-04-16T11:12:00;20.20;;;11.95;;
20185;SDS011;10252;48.792;8.582;2023-04-16T11:17:02;20.27;;;12.15;;
20185;SDS011;10252;48.792;8.582;2023-04-16T11:22:04;33.25;;;16.98;;
20185;SDS011;10252;48.792;8.582;2023-04-16T11:27:05;21.27;;;12.45;;
20185;SDS011;10252;48.792;8.582;2023-04-16T11:32:06;22.27;;;14.13;;
20185;SDS011;10252;48.792;8.582;2023-04-16T11:37:08;24.95;;;14.32;;
20185;SDS011;10252;48.792;8.582;2023-04-16T11:42:09;17.85;;;10.65;;
20185;SDS011;10252;48.792;8.582;2023-04-16T11:47:10;17.73;;;11.88;;
20185;SDS011;10252;48.792;8.582;2023-04-16T11:52:14;18.75;;;11.45;;
20185;SDS011;10252;48.792;8.582;2023-04-16T11:57:26;16.58;;;11.23;;
20185;SDS011;10252;48.792;8.582;2023-04-16T12:02:37;14.00;;;9.55;;
20185;SDS011;10252;48.792;8.582;2023-04-16T12:07:43;13.02;;;8.60;;
20185;SDS011;10252;48.792;8.582;2023-04-16T12:12:45;15.48;;;10.40;;
20185;SDS011;10252;48.792;8.582;2023-04-16T12:17:46;13.90;;;8.25;;
20185;SDS011;10252;48.792;8.582;2023-04-16T12:22:47;9.43;;;6.40;;
20185;SDS011;10252;48.792;8.582;2023-04-16T12:27:53;8.65;;;5.38;;
20185;SDS011;10252;48.792;8.582;2023-04-16T12:38:14;8.68;;;6.30;;
20185;SDS011;10252;48.792;8.582;2023-04-16T12:43:15;9.55;;;5.90;;
20185;SDS011;10252;48.792;8.582;2023-04-16T12:48:17;8.73;;;6.57;;
20185;SDS011;10252;48.792;8.582;2023-04-16T12:53:18;11.05;;;6.80;;
20185;SDS011;10252;48.792;8.582;2023-04-16T12:58:19;11.13;;;7.95;;
20185;SDS011;10252;48.792;8.582;2023-04-16T13:03:20;12.13;;;8.15;;
20185;SDS011;10252;48.792;8.582;2023-04-16T13:08:21;13.27;;;9.10;;
20185;SDS011;10252;48.792;8.582;2023-04-16T13:13:22;12.02;;;8.27;;
20185;SDS011;10252;48.792;8.582;2023-04-16T13:18:24;11.70;;;8.45;;
20185;SDS011;10252;48.792;8.582;2023-04-16T13:23:26;12.18;;;9.20;;
20185;SDS011;10252;48.792;8.582;2023-04-16T13:28:27;10.60;;;6.88;;
20185;SDS011;10252;48.792;8.582;2023-04-16T13:33:28;8.40;;;6.28;;
20185;SDS011;10252;48.792;8.582;2023-04-16T13:38:29;7.53;;;5.57;;
20185;SDS011;10252;48.792;8.582;2023-04-16T13:43:31;4.97;;;4.18;;
20185;SDS011;10252;48.792;8.582;2023-04-16T13:48:32;6.13;;;4.80;;
20185;SDS011;10252;48.792;8.582;2023-04-16T13:53:33;8.23;;;5.97;;
20185;SDS011;10252;48.792;8.582;2023-04-16T13:58:34;6.63;;;5.00;;
20185;SDS011;10252;48.792;8.582;2023-04-16T14:03:35;8.93;;;6.70;;
20185;SDS011;10252;48.792;8.582;2023-04-16T14:08:37;10.90;;;7.53;;
20185;SDS011;10252;48.792;8.582;2023-04-16T14:13:38;10.55;;;7.50;;
20185;SDS011;10252;48.792;8.582;2023-04-16T14:18:39;14.40;;;9.30;;
20185;SDS011;10252;48.792;8.582;2023-04-16T14:23:41;13.13;;;9.35;;
20185;SDS011;10252;48.792;8.582;2023-04-16T14:28:42;10.30;;;7.57;;
20185;SDS011;10252;48.792;8.582;2023-04-16T14:33:43;10.55;;;7.13;;
20185;SDS011;10252;48.792;8.582;2023-04-16T14:38:46;10.85;;;7.22;;
20185;SDS011;10252;48.792;8.582;2023-04-16T14:43:47;10.95;;;7.57;;
20185;SDS011;10252;48.792;8.582;2023-04-16T14:48:48;8.40;;;5.47;;
20185;SDS011;10252;48.792;8.582;2023-04-16T14:53:50;10.57;;;6.18;;
20185;SDS011;10252;48.792;8.582;2023-04-16T14:58:51;8.63;;;6.00;;
20185;SDS011;10252;48.792;8.582;2023-04-16T15:03:53;8.45;;;5.97;;
20185;SDS011;10252;48.792;8.582;2023-04-16T15:08:55;9.02;;;5.50;;
20185;SDS011;10252;48.792;8.582;2023-04-16T15:13:56;7.32;;;5.38;;
20185;SDS011;10252;48.792;8.582;2023-04-16T15:18:57;9.80;;;6.28;;
20185;SDS011;10252;48.792;8.582;2023-04-16T15:23:58;8.70;;;5.95;;
20185;SDS011;10252;48.792;8.582;2023-04-16T15:28:59;10.00;;;7.13;;
20185;SDS011;10252;48.792;8.582;2023-04-16T15:34:00;12.63;;;8.38;;
20185;SDS011;10252;48.792;8.582;2023-04-16T15:39:01;16.17;;;9.27;;
20185;SDS011;10252;48.792;8.582;2023-04-16T15:44:03;15.98;;;9.73;;
20185;SDS011;10252;48.792;8.582;2023-04-16T15:49:04;15.63;;;9.35;;
20185;SDS011;10252;48.792;8.582;2023-04-16T15:54:06;15.15;;;9.48;;
20185;SDS011;10252;48.792;8.582;2023-04-16T15:59:07;14.45;;;9.20;;
20185;SDS011;10252;48.792;8.582;2023-04-16T16:04:08;18.63;;;11.45;;
20185;SDS011;10252;48.792;8.582;2023-04-16T16:09:10;19.58;;;12.15;;
20185;SDS011;10252;48.792;8.582;2023-04-16T16:14:11;16.48;;;9.70;;
20185;SDS011;10252;48.792;8.582;2023-04-16T16:19:13;20.13;;;12.00;;
20185;SDS011;10252;48.792;8.582;2023-04-16T16:24:14;22.73;;;13.43;;
20185;SDS011;10252;48.792;8.582;2023-04-16T16:29:15;24.25;;;14.35;;
20185;SDS011;10252;48.792;8.582;2023-04-16T16:34:16;20.48;;;13.50;;
20185;SDS011;10252;48.792;8.582;2023-04-16T16:39:17;21.52;;;14.30;;
20185;SDS011;10252;48.792;8.582;2023-04-16T16:44:23;33.97;;;19.75;;
20185;SDS011;10252;48.792;8.582;2023-04-16T16:49:24;35.47;;;20.20;;
20185;SDS011;10252;48.792;8.582;2023-04-16T16:54:25;44.88;;;23.35;;
20185;SDS011;10252;48.792;8.582;2023-04-16T16:59:27;40.65;;;23.42;;
20185;SDS011;10252;48.792;8.582;2023-04-16T17:04:28;40.08;;;22.02;;
20185;SDS011;10252;48.792;8.582;2023-04-16T17:09:29;35.75;;;21.40;;
20185;SDS011;10252;48.792;8.582;2023-04-16T17:14:30;42.17;;;23.85;;
20185;SDS011;10252;48.792;8.582;2023-04-16T17:19:31;44.75;;;25.70;;
20185;SDS011;10252;48.792;8.582;2023-04-16T17:24:33;41.28;;;24.25;;
20185;SDS011;10252;48.792;8.582;2023-04-16T17:29:34;43.00;;;23.90;;
20185;SDS011;10252;48.792;8.582;2023-04-16T17:34:35;45.47;;;25.17;;
20185;SDS011;10252;48.792;8.582;2023-04-16T17:39:36;47.97;;;28.63;;
20185;SDS011;10252;48.792;8.582;2023-04-16T17:44:37;48.13;;;27.73;;
20185;SDS011;10252;48.792;8.582;2023-04-16T17:49:38;46.03;;;27.27;;
20185;SDS011;10252;48.792;8.582;2023-04-16T17:54:39;43.70;;;26.55;;
20185;SDS011;10252;48.792;8.582;2023-04-16T17:59:41;55.22;;;30.33;;
20185;SDS011;10252;48.792;8.582;2023-04-16T18:04:43;54.58;;;31.13;;
20185;SDS011;10252;48.792;8.582;2023-04-16T18:09:45;52.78;;;30.83;;
20185;SDS011;10252;48.792;8.582;2023-04-16T18:14:46;53.88;;;30.83;;
20185;SDS011;10252;48.792;8.582;2023-04-16T18:19:47;53.45;;;30.42;;
20185;SDS011;10252;48.792;8.582;2023-04-16T18:24:48;52.35;;;29.00;;
20185;SDS011;10252;48.792;8.582;2023-04-16T18:29:49;58.72;;;30.67;;
20185;SDS011;10252;48.792;8.582;2023-04-16T18:34:50;55.35;;;29.40;;
20185;SDS011;10252;48.792;8.582;2023-04-16T18:39:51;57.03;;;29.73;;
20185;SDS011;10252;48.792;8.582;2023-04-16T18:44:53;60.13;;;30.98;;
20185;SDS011;10252;48.792;8.582;2023-04-16T18:49:54;50.53;;;28.17;;
20185;SDS011;10252;48.792;8.582;2023-04-16T18:54:55;52.10;;;30.85;;
20185;SDS011;10252;48.792;8.582;2023-04-16T18:59:56;49.40;;;27.40;;
20185;SDS011;10252;48.792;8.582;2023-04-16T19:04:57;58.10;;;33.33;;
20185;SDS011;10252;48.792;8.582;2023-04-16T19:09:58;53.45;;;30.67;;
20185;SDS011;10252;48.792;8.582;2023-04-16T19:15:01;54.63;;;31.35;;
20185;SDS011;10252;48.792;8.582;2023-04-16T19:20:02;84.07;;;41.15;;
20185;SDS011;10252;48.792;8.582;2023-04-16T19:25:08;52.80;;;31.55;;
20185;SDS011;10252;48.792;8.582;2023-04-16T19:30:09;59.80;;;32.05;;
20185;SDS011;10252;48.792;8.582;2023-04-16T19:35:10;56.38;;;30.70;;
20185;SDS011;10252;48.792;8.582;2023-04-16T19:40:11;61.30;;;33.03;;
20185;SDS011;10252;48.792;8.582;2023-04-16T19:45:12;66.93;;;34.63;;
20185;SDS011;10252;48.792;8.582;2023-04-16T19:50:13;62.95;;;33.80;;
20185;SDS011;10252;48.792;8.582;2023-04-16T19:55:15;80.50;;;38.33;;
20185;SDS011;10252;48.792;8.582;2023-04-16T20:00:16;60.63;;;30.88;;
20185;SDS011;10252;48.792;8.582;2023-04-16T20:05:17;58.33;;;32.60;;
20185;SDS011;10252;48.792;8.582;2023-04-16T20:10:18;55.90;;;30.45;;
20185;SDS011;10252;48.792;8.582;2023-04-16T20:15:19;67.07;;;33.90;;
20185;SDS011;10252;48.792;8.582;2023-04-16T20:20:20;66.55;;;34.05;;
20185;SDS011;10252;48.792;8.582;2023-04-16T20:25:23;58.78;;;31.13;;
20185;SDS011;10252;48.792;8.582;2023-04-16T20:30:25;65.90;;;34.47;;
20185;SDS011;10252;48.792;8.582;2023-04-16T20:35:28;77.88;;;38.33;;
20185;SDS011;10252;48.792;8.582;2023-04-16T20:40:29;99.22;;;44.28;;
20185;SDS011;10252;48.792;8.582;2023-04-16T20:45:30;79.88;;;40.55;;
20185;SDS011;10252;48.792;8.582;2023-04-16T20:50:37;86.85;;;40.30;;
20185;SDS011;10252;48.792;8.582;2023-04-16T20:55:38;64.95;;;31.80;;
20185;SDS011;10252;48.792;8.582;2023-04-16T21:00:39;64.68;;;35.45;;
20185;SDS011;10252;48.792;8.582;2023-04-16T21:05:40;64.35;;;36.72;;
20185;SDS011;10252;48.792;8.582;2023-04-16T21:10:41;53.50;;;28.80;;
20185;SDS011;10252;48.792;8.582;2023-04-16T21:15:43;56.97;;;29.52;;
20185;SDS011;10252;48.792;8.582;2023-04-16T21:20:44;54.97;;;29.40;;
20185;SDS011;10252;48.792;8.582;2023-04-16T21:25:45;53.78;;;28.10;;
20185;SDS011;10252;48.792;8.582;2023-04-16T21:30:50;65.72;;;37.80;;
20185;SDS011;10252;48.792;8.582;2023-04-16T21:35:51;63.55;;;33.05;;
20185;SDS011;10252;48.792;8.582;2023-04-16T21:40:53;57.42;;;28.13;;
20185;SDS011;10252;48.792;8.582;2023-04-16T21:45:54;54.17;;;27.80;;
20185;SDS011;10252;48.792;8.582;2023-04-16T21:50:56;60.30;;;30.70;;
20185;SDS011;10252;48.792;8.582;2023-04-16T21:55:58;51.35;;;28.40;;
20185;SDS011;10252;48.792;8.582;2023-04-16T22:00:59;47.38;;;27.10;;
20185;SDS011;10252;48.792;8.582;2023-04-16T22:06:00;54.88;;;28.42;;
20185;SDS011;10252;48.792;8.582;2023-04-16T22:11:01;57.53;;;29.42;;
20185;SDS011;10252;48.792;8.582;2023-04-16T22:16:03;54.13;;;29.48;;
20185;SDS011;10252;48.792;8.582;2023-04-16T22:21:04;53.78;;;29.90;;
20185;SDS011;10252;48.792;8.582;2023-04-16T22:26:05;54.97;;;29.85;;
20185;SDS011;10252;48.792;8.582;2023-04-16T22:31:08;60.42;;;30.73;;
20185;SDS011;10252;48.792;8.582;2023-04-16T22:36:09;59.90;;;32.00;;
20185;SDS011;10252;48.792;8.582;2023-04-16T22:41:10;60.38;;;31.13;;
20185;SDS011;10252;48.792;8.582;2023-04-16T22:46:11;64.70;;;32.63;;
20185;SDS011;10252;48.792;8.582;2023-04-16T22:51:12;69.60;;;33.65;;
20185;SDS011;10252;48.792;8.582;2023-04-16T22:56:13;63.22;;;33.40;;
20185;SDS011;10252;48.792;8.582;2023-04-16T23:01:15;66.15;;;35.13;;
20185;SDS011;10252;48.792;8.582;2023-04-16T23:06:16;66.35;;;35.60;;
20185;SDS011;10252;48.792;8.582;2023-04-16T23:11:17;59.67;;;33.38;;
20185;SDS011;10252;48.792;8.582;2023-04-16T23:16:18;69.10;;;34.70;;
20185;SDS011;10252;48.792;8.582;2023-04-16T23:21:20;64.53;;;32.03;;
20185;SDS011;10252;48.792;8.582;2023-04-16T23:26:21;59.70;;;31.55;;
20185;SDS011;10252;48.792;8.582;2023-04-16T23:31:23;61.25;;;30.88;;
20185;SDS011;10252;48.792;8.582;2023-04-16T23:36:24;55.60;;;29.10;;
20185;SDS011;10252;48.792;8.582;2023-04-16T23:41:25;57.78;;;31.65;;
20185;SDS011;10252;48.792;8.582;2023-04-16T23:46:27;58.33;;;30.95;;
20185;SDS011;10252;48.792;8.582;2023-04-16T23:51:28;58.67;;;30.65;;
20185;SDS011;10252;48.792;8.582;2023-04-16T23:56:30;59.08;;;31.73;;
